»·PEaware :: N623JB KBFL-KMHV

N623JB :: KBFL-KMHV

FLIGHT INFORMATION

Flight Status: Arrived
Operator: Privately registered:
United States
More flights under this callsign
Pilot: Jonathan B. (32222)
Aircraft: CIRRUS SR-22
(SR22)
More flights by this aircraft type
Origin: KBFL Meadows
United States
Destination: KMHV Mojave
United States
More flights between these airports :: More routes between these airports
Route:
File this flight plan on PilotEdge
Remarks:
Altitude:
(Current/Filed)
7,500ft
Speed:
(Current/Filed)
140kts
Departed: 09-Nov-20 08:10 AM
Arrived: 09-Nov-20 08:44 AM
Distance/Time
Traveled:
0nm/0:34
Distance/Time
To Go:
Arrived

Flight Plot

Page will automatically refresh every two minutes.


Map Options




Map Legend


Flown Route
Filed Route
Departure Airport
Arrival Airport
Navaid (VOR, NDB)
Fix

Horizontal Profiles

Position Reports

Time Latitude Longitude Heading Altitude Ground
Speed
09-Nov-20 08:01 35.432329 -119.050184 225 485ft 0kts
09-Nov-20 08:02 35.432329 -119.050184 225 485ft 0kts
09-Nov-20 08:03 35.430847 -119.050305 133 483ft 0kts
09-Nov-20 08:04 35.430434 -119.049541 141 482ft 15kts
09-Nov-20 08:05 35.426551 -119.045119 135 473ft 23kts
09-Nov-20 08:06 35.425749 -119.044751 222 472ft 0kts
09-Nov-20 08:07 35.425749 -119.044751 222 472ft 0kts
09-Nov-20 08:08 35.425514 -119.045393 272 473ft 15kts
09-Nov-20 08:09 35.438589 -119.061925 316 795ft 125kts
09-Nov-20 08:10 35.464887 -119.078986 50 2584ft 101kts
09-Nov-20 08:11 35.458033 -119.047938 115 4042ft 103kts
09-Nov-20 08:12 35.444217 -119.017078 158 5423ft 107kts
09-Nov-20 08:13 35.414517 -119.007760 142 6704ft 113kts
09-Nov-20 08:14 35.398130 -118.970404 118 7474ft 153kts
09-Nov-20 08:15 35.377689 -118.920789 118 7371ft 169kts
09-Nov-20 08:16 35.356854 -118.869828 117 7308ft 164kts
09-Nov-20 08:17 35.336352 -118.819906 117 7311ft 163kts
09-Nov-20 08:18 35.315948 -118.770220 117 7309ft 163kts
09-Nov-20 08:19 35.295485 -118.720470 117 7310ft 163kts
09-Nov-20 08:20 35.275361 -118.671414 117 7310ft 160kts
09-Nov-20 08:21 35.255359 -118.622868 117 7313ft 160kts
09-Nov-20 08:22 35.235247 -118.574164 117 7304ft 159kts
09-Nov-20 08:23 35.215185 -118.525778 117 7317ft 160kts
09-Nov-20 08:24 35.194641 -118.476949 117 7310ft 162kts
09-Nov-20 08:25 35.173940 -118.428198 118 7304ft 159kts
09-Nov-20 08:26 35.154408 -118.381531 118 7307ft 149kts
09-Nov-20 08:27 35.142830 -118.335236 49 7313ft 150kts
09-Nov-20 08:28 35.162857 -118.356532 226 7307ft 141kts
09-Nov-20 08:29 35.125240 -118.369825 191 7311ft 143kts
09-Nov-20 08:30 35.087086 -118.380065 195 7307ft 135kts
09-Nov-20 08:31 35.090226 -118.400100 39 7314ft 133kts
09-Nov-20 08:32 35.120200 -118.374415 23 6880ft 136kts
09-Nov-20 08:33 35.150297 -118.351105 87 6345ft 122kts
09-Nov-20 08:34 35.127401 -118.326089 125 6312ft 121kts
09-Nov-20 08:35 35.116202 -118.284393 106 6303ft 127kts
09-Nov-20 08:36 35.106692 -118.244639 107 6310ft 125kts
09-Nov-20 08:37 35.099098 -118.197659 73 4956ft 154kts
09-Nov-20 08:38 35.115780 -118.154864 63 4687ft 127kts
09-Nov-20 08:39 35.088961 -118.141362 191 3955ft 128kts
09-Nov-20 08:40 35.060148 -118.138267 135 3321ft 102kts
09-Nov-20 08:41 35.042510 -118.114607 151 3182ft 84kts
09-Nov-20 08:42 35.046372 -118.132885 314 2778ft 75kts
09-Nov-20 08:43 35.057348 -118.146109 312 2749ft 33kts
09-Nov-20 08:44 35.057618 -118.147720 269 2749ft 0kts
09-Nov-20 08:45 35.057282 -118.150477 270 2753ft 0kts
09-Nov-20 08:46 35.057236 -118.150886 89 2754ft 3kts
09-Nov-20 08:47 35.057236 -118.150881 89 2754ft 0kts
09-Nov-20 08:49 35.432214 -119.050330 226 485ft 0kts
09-Nov-20 08:51 35.432214 -119.050330 226 485ft 0kts
09-Nov-20 08:52 35.432205 -119.050341 224 485ft 0kts
09-Nov-20 08:53 35.432356 -119.050158 224 485ft 0kts
09-Nov-20 08:54 35.432356 -119.050158 224 485ft 0kts
09-Nov-20 08:55 35.432356 -119.050158 224 485ft 0kts
09-Nov-20 08:56 35.432356 -119.050158 224 485ft 0kts
09-Nov-20 08:57 35.432356 -119.050158 224 485ft 0kts
09-Nov-20 08:58 35.432356 -119.050158 224 485ft 0kts

Navigation Log

Ident Type
Flight plan parsing failed, navigation log unavailable